sensor_id;sensor_type;location;lat;lon;timestamp;temperature;humidity
1367;DHT22;16877;48.810;9.282;2023-07-16T00:00:03;30.80;59.80
1367;DHT22;16877;48.810;9.282;2023-07-16T00:02:31;30.60;59.80
1367;DHT22;16877;48.810;9.282;2023-07-16T00:04:59;30.50;59.80
1367;DHT22;16877;48.810;9.282;2023-07-16T00:07:27;30.50;59.70
1367;DHT22;16877;48.810;9.282;2023-07-16T00:10:10;30.50;59.70
1367;DHT22;16877;48.810;9.282;2023-07-16T00:15:56;30.50;59.50
1367;DHT22;16877;48.810;9.282;2023-07-16T00:18:39;30.50;59.40
1367;DHT22;16877;48.810;9.282;2023-07-16T00:21:12;30.60;59.30
1367;DHT22;16877;48.810;9.282;2023-07-16T00:23:40;30.60;59.10
1367;DHT22;16877;48.810;9.282;2023-07-16T00:26:08;30.70;59.00
1367;DHT22;16877;48.810;9.282;2023-07-16T00:28:39;30.70;59.00
1367;DHT22;16877;48.810;9.282;2023-07-16T00:31:08;30.70;58.80
1367;DHT22;16877;48.810;9.282;2023-07-16T00:33:39;30.70;58.80
1367;DHT22;16877;48.810;9.282;2023-07-16T00:36:17;30.70;58.70
1367;DHT22;16877;48.810;9.282;2023-07-16T00:38:44;30.80;58.70
1367;DHT22;16877;48.810;9.282;2023-07-16T00:41:13;30.70;58.50
1367;DHT22;16877;48.810;9.282;2023-07-16T00:43:41;30.80;58.50
1367;DHT22;16877;48.810;9.282;2023-07-16T00:46:18;30.80;58.40
1367;DHT22;16877;48.810;9.282;2023-07-16T00:48:45;30.80;58.30
1367;DHT22;16877;48.810;9.282;2023-07-16T00:51:12;30.80;58.20
1367;DHT22;16877;48.810;9.282;2023-07-16T00:53:41;30.80;58.20
1367;DHT22;16877;48.810;9.282;2023-07-16T00:56:10;30.80;58.00
1367;DHT22;16877;48.810;9.282;2023-07-16T00:58:41;30.80;58.60
1367;DHT22;16877;48.810;9.282;2023-07-16T01:01:14;30.80;58.50
1367;DHT22;16877;48.810;9.282;2023-07-16T01:03:57;30.80;57.80
1367;DHT22;16877;48.810;9.282;2023-07-16T01:06:34;30.90;57.80
1367;DHT22;16877;48.810;9.282;2023-07-16T01:09:08;30.90;57.70
1367;DHT22;16877;48.810;9.282;2023-07-16T01:11:39;30.90;57.60
1367;DHT22;16877;48.810;9.282;2023-07-16T01:14:09;30.90;57.60
1367;DHT22;16877;48.810;9.282;2023-07-16T01:16:38;31.00;57.50
1367;DHT22;16877;48.810;9.282;2023-07-16T01:19:06;31.00;57.50
1367;DHT22;16877;48.810;9.282;2023-07-16T01:21:37;30.90;57.30
1367;DHT22;16877;48.810;9.282;2023-07-16T01:24:29;31.00;57.40
1367;DHT22;16877;48.810;9.282;2023-07-16T01:27:21;31.00;57.30
1367;DHT22;16877;48.810;9.282;2023-07-16T01:29:58;31.00;57.30
1367;DHT22;16877;48.810;9.282;2023-07-16T01:32:30;31.00;57.30
1367;DHT22;16877;48.810;9.282;2023-07-16T01:34:58;31.00;57.30
1367;DHT22;16877;48.810;9.282;2023-07-16T01:37:26;31.00;57.30
1367;DHT22;16877;48.810;9.282;2023-07-16T01:39:54;30.80;56.80
1367;DHT22;16877;48.810;9.282;2023-07-16T01:42:25;30.80;57.20
1367;DHT22;16877;48.810;9.282;2023-07-16T01:44:56;30.70;57.00
1367;DHT22;16877;48.810;9.282;2023-07-16T01:47:29;30.50;55.70
1367;DHT22;16877;48.810;9.282;2023-07-16T01:50:01;30.30;56.20
1367;DHT22;16877;48.810;9.282;2023-07-16T01:52:31;30.20;55.30
1367;DHT22;16877;48.810;9.282;2023-07-16T01:55:00;30.20;56.40
1367;DHT22;16877;48.810;9.282;2023-07-16T01:57:31;30.20;56.20
1367;DHT22;16877;48.810;9.282;2023-07-16T02:00:00;30.20;56.60
1367;DHT22;16877;48.810;9.282;2023-07-16T02:02:32;30.20;56.10
1367;DHT22;16877;48.810;9.282;2023-07-16T02:05:00;30.30;56.10
1367;DHT22;16877;48.810;9.282;2023-07-16T02:07:28;30.20;55.40
1367;DHT22;16877;48.810;9.282;2023-07-16T02:09:56;30.20;55.20
1367;DHT22;16877;48.810;9.282;2023-07-16T02:12:30;30.10;54.60
1367;DHT22;16877;48.810;9.282;2023-07-16T02:15:02;30.00;54.20
1367;DHT22;16877;48.810;9.282;2023-07-16T02:17:29;29.90;54.00
1367;DHT22;16877;48.810;9.282;2023-07-16T02:19:58;29.90;54.10
1367;DHT22;16877;48.810;9.282;2023-07-16T02:22:25;29.90;54.30
1367;DHT22;16877;48.810;9.282;2023-07-16T02:24:56;30.10;54.50
1367;DHT22;16877;48.810;9.282;2023-07-16T02:27:25;30.10;54.00
1367;DHT22;16877;48.810;9.282;2023-07-16T02:29:53;30.10;54.10
1367;DHT22;16877;48.810;9.282;2023-07-16T02:32:27;30.10;53.90
1367;DHT22;16877;48.810;9.282;2023-07-16T02:34:54;30.10;53.80
1367;DHT22;16877;48.810;9.282;2023-07-16T02:37:27;30.20;53.90
1367;DHT22;16877;48.810;9.282;2023-07-16T02:39:59;30.20;53.80
1367;DHT22;16877;48.810;9.282;2023-07-16T02:42:26;30.20;53.60
1367;DHT22;16877;48.810;9.282;2023-07-16T02:44:54;30.20;53.60
1367;DHT22;16877;48.810;9.282;2023-07-16T02:47:25;30.20;53.50
1367;DHT22;16877;48.810;9.282;2023-07-16T02:49:56;30.20;53.40
1367;DHT22;16877;48.810;9.282;2023-07-16T02:52:29;30.20;53.30
1367;DHT22;16877;48.810;9.282;2023-07-16T02:54:56;30.20;53.80
1367;DHT22;16877;48.810;9.282;2023-07-16T02:57:25;30.30;53.10
1367;DHT22;16877;48.810;9.282;2023-07-16T02:59:55;30.20;53.20
1367;DHT22;16877;48.810;9.282;2023-07-16T03:05:30;30.20;53.20
1367;DHT22;16877;48.810;9.282;2023-07-16T03:07:58;30.20;53.20
1367;DHT22;16877;48.810;9.282;2023-07-16T03:10:33;30.20;53.30
1367;DHT22;16877;48.810;9.282;2023-07-16T03:13:01;30.10;53.30
1367;DHT22;16877;48.810;9.282;2023-07-16T03:15:28;30.00;53.50
1367;DHT22;16877;48.810;9.282;2023-07-16T03:17:56;30.00;53.60
1367;DHT22;16877;48.810;9.282;2023-07-16T03:20:28;29.90;53.60
1367;DHT22;16877;48.810;9.282;2023-07-16T03:22:57;29.80;53.70
1367;DHT22;16877;48.810;9.282;2023-07-16T03:25:29;29.80;53.90
1367;DHT22;16877;48.810;9.282;2023-07-16T03:28:02;29.80;53.80
1367;DHT22;16877;48.810;9.282;2023-07-16T03:30:30;29.80;53.90
1367;DHT22;16877;48.810;9.282;2023-07-16T03:32:58;29.70;54.00
1367;DHT22;16877;48.810;9.282;2023-07-16T03:35:38;29.70;54.00
1367;DHT22;16877;48.810;9.282;2023-07-16T03:38:05;29.60;53.90
1367;DHT22;16877;48.810;9.282;2023-07-16T03:40:45;29.60;54.10
1367;DHT22;16877;48.810;9.282;2023-07-16T03:43:13;29.70;53.90
1367;DHT22;16877;48.810;9.282;2023-07-16T03:45:40;29.50;53.40
1367;DHT22;16877;48.810;9.282;2023-07-16T03:48:08;29.40;53.60
1367;DHT22;16877;48.810;9.282;2023-07-16T03:50:37;29.50;54.00
1367;DHT22;16877;48.810;9.282;2023-07-16T03:53:06;29.50;53.80
1367;DHT22;16877;48.810;9.282;2023-07-16T03:55:37;29.40;53.30
1367;DHT22;16877;48.810;9.282;2023-07-16T03:58:05;29.30;53.30
1367;DHT22;16877;48.810;9.282;2023-07-16T04:00:33;29.30;53.20
1367;DHT22;16877;48.810;9.282;2023-07-16T04:03:02;29.20;53.00
1367;DHT22;16877;48.810;9.282;2023-07-16T04:05:31;29.10;53.50
1367;DHT22;16877;48.810;9.282;2023-07-16T04:08:16;29.10;53.60
1367;DHT22;16877;48.810;9.282;2023-07-16T04:10:44;29.10;53.60
1367;DHT22;16877;48.810;9.282;2023-07-16T04:13:17;29.20;53.60
1367;DHT22;16877;48.810;9.282;2023-07-16T04:15:45;29.20;53.40
1367;DHT22;16877;48.810;9.282;2023-07-16T04:18:12;29.20;53.50
1367;DHT22;16877;48.810;9.282;2023-07-16T04:20:40;29.30;54.10
1367;DHT22;16877;48.810;9.282;2023-07-16T04:23:07;29.40;53.50
1367;DHT22;16877;48.810;9.282;2023-07-16T04:25:36;29.50;53.30
1367;DHT22;16877;48.810;9.282;2023-07-16T04:28:05;29.60;53.20
1367;DHT22;16877;48.810;9.282;2023-07-16T04:30:32;29.60;53.00
1367;DHT22;16877;48.810;9.282;2023-07-16T04:33:01;29.60;53.00
1367;DHT22;16877;48.810;9.282;2023-07-16T04:35:35;29.70;52.90
1367;DHT22;16877;48.810;9.282;2023-07-16T04:38:03;29.60;52.60
1367;DHT22;16877;48.810;9.282;2023-07-16T04:40:32;29.70;52.80
1367;DHT22;16877;48.810;9.282;2023-07-16T04:43:07;29.70;52.80
1367;DHT22;16877;48.810;9.282;2023-07-16T04:45:35;29.70;52.70
1367;DHT22;16877;48.810;9.282;2023-07-16T04:48:06;29.60;52.60
1367;DHT22;16877;48.810;9.282;2023-07-16T04:50:37;29.60;52.80
1367;DHT22;16877;48.810;9.282;2023-07-16T04:53:09;29.60;52.80
1367;DHT22;16877;48.810;9.282;2023-07-16T04:55:36;29.60;52.80
1367;DHT22;16877;48.810;9.282;2023-07-16T04:58:12;29.60;52.80
1367;DHT22;16877;48.810;9.282;2023-07-16T05:00:43;29.80;52.90
1367;DHT22;16877;48.810;9.282;2023-07-16T05:03:11;29.70;52.70
1367;DHT22;16877;48.810;9.282;2023-07-16T05:05:49;29.80;52.70
1367;DHT22;16877;48.810;9.282;2023-07-16T05:08:17;29.80;52.70
1367;DHT22;16877;48.810;9.282;2023-07-16T05:10:45;29.80;52.80
1367;DHT22;16877;48.810;9.282;2023-07-16T05:13:24;29.90;52.70
1367;DHT22;16877;48.810;9.282;2023-07-16T05:16:26;29.80;52.80
1367;DHT22;16877;48.810;9.282;2023-07-16T05:19:01;29.70;53.00
1367;DHT22;16877;48.810;9.282;2023-07-16T05:21:31;29.70;53.00
1367;DHT22;16877;48.810;9.282;2023-07-16T05:24:11;29.70;53.00
1367;DHT22;16877;48.810;9.282;2023-07-16T05:26:45;29.80;53.10
1367;DHT22;16877;48.810;9.282;2023-07-16T05:29:31;29.80;53.10
1367;DHT22;16877;48.810;9.282;2023-07-16T05:31:58;29.70;53.70
1367;DHT22;16877;48.810;9.282;2023-07-16T05:34:37;29.70;53.20
1367;DHT22;16877;48.810;9.282;2023-07-16T05:37:23;29.70;53.20
1367;DHT22;16877;48.810;9.282;2023-07-16T05:39:51;29.60;53.20
1367;DHT22;16877;48.810;9.282;2023-07-16T05:42:33;29.60;53.40
1367;DHT22;16877;48.810;9.282;2023-07-16T05:45:10;29.50;53.30
1367;DHT22;16877;48.810;9.282;2023-07-16T05:47:37;29.30;53.60
1367;DHT22;16877;48.810;9.282;2023-07-16T05:50:06;29.30;53.90
1367;DHT22;16877;48.810;9.282;2023-07-16T05:52:34;29.30;53.80
1367;DHT22;16877;48.810;9.282;2023-07-16T05:55:07;29.30;53.90
1367;DHT22;16877;48.810;9.282;2023-07-16T05:57:45;29.10;54.20
1367;DHT22;16877;48.810;9.282;2023-07-16T06:00:21;29.00;54.40
1367;DHT22;16877;48.810;9.282;2023-07-16T06:02:50;29.00;54.50
1367;DHT22;16877;48.810;9.282;2023-07-16T06:05:18;29.00;54.60
1367;DHT22;16877;48.810;9.282;2023-07-16T06:08:18;29.10;54.60
1367;DHT22;16877;48.810;9.282;2023-07-16T06:10:57;29.30;55.00
1367;DHT22;16877;48.810;9.282;2023-07-16T06:13:25;29.30;54.30
1367;DHT22;16877;48.810;9.282;2023-07-16T06:15:55;29.30;54.30
1367;DHT22;16877;48.810;9.282;2023-07-16T06:18:25;29.30;54.30
1367;DHT22;16877;48.810;9.282;2023-07-16T06:20:53;29.30;54.30
1367;DHT22;16877;48.810;9.282;2023-07-16T06:23:21;29.30;54.10
1367;DHT22;16877;48.810;9.282;2023-07-16T06:26:03;29.40;54.20
1367;DHT22;16877;48.810;9.282;2023-07-16T06:28:30;29.40;54.20
1367;DHT22;16877;48.810;9.282;2023-07-16T06:30:59;29.30;53.60
1367;DHT22;16877;48.810;9.282;2023-07-16T06:33:27;29.20;54.10
1367;DHT22;16877;48.810;9.282;2023-07-16T06:35:54;29.20;53.90
1367;DHT22;16877;48.810;9.282;2023-07-16T06:38:21;29.30;54.00
1367;DHT22;16877;48.810;9.282;2023-07-16T06:40:50;29.30;53.90
1367;DHT22;16877;48.810;9.282;2023-07-16T06:43:18;29.40;53.80
1367;DHT22;16877;48.810;9.282;2023-07-16T06:45:49;29.40;53.60
1367;DHT22;16877;48.810;9.282;2023-07-16T06:48:18;29.40;53.60
1367;DHT22;16877;48.810;9.282;2023-07-16T06:50:50;29.40;53.60
1367;DHT22;16877;48.810;9.282;2023-07-16T06:53:18;29.40;53.40
1367;DHT22;16877;48.810;9.282;2023-07-16T06:55:47;29.40;53.40
1367;DHT22;16877;48.810;9.282;2023-07-16T06:58:19;29.50;53.10
1367;DHT22;16877;48.810;9.282;2023-07-16T07:00:46;29.50;52.90
1367;DHT22;16877;48.810;9.282;2023-07-16T07:03:18;29.50;52.80
1367;DHT22;16877;48.810;9.282;2023-07-16T07:06:02;29.40;52.20
1367;DHT22;16877;48.810;9.282;2023-07-16T07:08:35;29.40;52.40
1367;DHT22;16877;48.810;9.282;2023-07-16T07:11:17;29.40;52.30
1367;DHT22;16877;48.810;9.282;2023-07-16T07:14:00;29.40;51.60
1367;DHT22;16877;48.810;9.282;2023-07-16T07:16:32;29.30;51.70
1367;DHT22;16877;48.810;9.282;2023-07-16T07:19:10;29.20;51.30
1367;DHT22;16877;48.810;9.282;2023-07-16T07:21:52;29.20;51.40
1367;DHT22;16877;48.810;9.282;2023-07-16T07:24:20;29.30;51.20
1367;DHT22;16877;48.810;9.282;2023-07-16T07:26:48;29.40;54.30
1367;DHT22;16877;48.810;9.282;2023-07-16T07:29:31;29.70;55.30
1367;DHT22;16877;48.810;9.282;2023-07-16T07:31:58;30.10;55.90
1367;DHT22;16877;48.810;9.282;2023-07-16T07:34:27;30.30;55.00
1367;DHT22;16877;48.810;9.282;2023-07-16T07:36:55;30.50;54.00
1367;DHT22;16877;48.810;9.282;2023-07-16T07:39:22;30.80;53.30
1367;DHT22;16877;48.810;9.282;2023-07-16T07:41:50;31.00;52.80
1367;DHT22;16877;48.810;9.282;2023-07-16T07:44:17;31.20;52.20
1367;DHT22;16877;48.810;9.282;2023-07-16T07:46:48;31.20;51.30
1367;DHT22;16877;48.810;9.282;2023-07-16T07:49:18;31.20;51.50
1367;DHT22;16877;48.810;9.282;2023-07-16T07:51:52;31.20;51.30
1367;DHT22;16877;48.810;9.282;2023-07-16T07:54:21;31.20;51.10
1367;DHT22;16877;48.810;9.282;2023-07-16T07:56:48;31.40;50.90
1367;DHT22;16877;48.810;9.282;2023-07-16T07:59:23;31.50;50.40
1367;DHT22;16877;48.810;9.282;2023-07-16T08:01:50;31.50;50.30
1367;DHT22;16877;48.810;9.282;2023-07-16T08:04:24;31.60;50.00
1367;DHT22;16877;48.810;9.282;2023-07-16T08:06:54;31.80;49.60
1367;DHT22;16877;48.810;9.282;2023-07-16T08:09:21;31.80;49.40
1367;DHT22;16877;48.810;9.282;2023-07-16T08:11:49;32.00;49.30
1367;DHT22;16877;48.810;9.282;2023-07-16T08:14:16;32.00;49.10
1367;DHT22;16877;48.810;9.282;2023-07-16T08:16:44;32.10;48.90
1367;DHT22;16877;48.810;9.282;2023-07-16T08:19:12;32.10;48.90
1367;DHT22;16877;48.810;9.282;2023-07-16T08:21:39;32.20;48.80
1367;DHT22;16877;48.810;9.282;2023-07-16T08:24:08;32.20;48.60
1367;DHT22;16877;48.810;9.282;2023-07-16T08:26:42;32.20;48.60
1367;DHT22;16877;48.810;9.282;2023-07-16T08:29:18;32.20;48.40
1367;DHT22;16877;48.810;9.282;2023-07-16T08:31:49;32.40;48.40
1367;DHT22;16877;48.810;9.282;2023-07-16T08:34:24;32.70;48.20
1367;DHT22;16877;48.810;9.282;2023-07-16T08:36:58;32.80;48.00
1367;DHT22;16877;48.810;9.282;2023-07-16T08:39:33;32.90;47.80
1367;DHT22;16877;48.810;9.282;2023-07-16T08:42:06;32.90;47.70
1367;DHT22;16877;48.810;9.282;2023-07-16T08:44:43;32.90;47.60
1367;DHT22;16877;48.810;9.282;2023-07-16T08:47:12;32.90;47.50
1367;DHT22;16877;48.810;9.282;2023-07-16T08:49:42;33.00;47.40
1367;DHT22;16877;48.810;9.282;2023-07-16T08:52:22;33.00;47.20
1367;DHT22;16877;48.810;9.282;2023-07-16T08:54:51;33.20;46.90
1367;DHT22;16877;48.810;9.282;2023-07-16T08:57:22;33.30;46.30
1367;DHT22;16877;48.810;9.282;2023-07-16T08:59:51;32.90;45.00
1367;DHT22;16877;48.810;9.282;2023-07-16T09:02:18;32.70;45.50
1367;DHT22;16877;48.810;9.282;2023-07-16T09:04:55;32.80;46.10
1367;DHT22;16877;48.810;9.282;2023-07-16T09:07:23;33.00;46.30
1367;DHT22;16877;48.810;9.282;2023-07-16T09:10:11;33.30;46.00
1367;DHT22;16877;48.810;9.282;2023-07-16T09:12:42;33.50;45.60
1367;DHT22;16877;48.810;9.282;2023-07-16T09:15:10;33.70;45.30
1367;DHT22;16877;48.810;9.282;2023-07-16T09:17:39;33.70;45.10
1367;DHT22;16877;48.810;9.282;2023-07-16T09:20:08;33.90;44.60
1367;DHT22;16877;48.810;9.282;2023-07-16T09:22:38;34.00;44.50
1367;DHT22;16877;48.810;9.282;2023-07-16T09:25:07;34.10;44.30
1367;DHT22;16877;48.810;9.282;2023-07-16T09:27:41;34.20;44.20
1367;DHT22;16877;48.810;9.282;2023-07-16T09:30:23;34.40;43.80
1367;DHT22;16877;48.810;9.282;2023-07-16T09:33:15;34.50;43.80
1367;DHT22;16877;48.810;9.282;2023-07-16T09:35:42;34.70;43.60
1367;DHT22;16877;48.810;9.282;2023-07-16T09:38:10;34.90;43.40
1367;DHT22;16877;48.810;9.282;2023-07-16T09:40:38;35.20;43.10
1367;DHT22;16877;48.810;9.282;2023-07-16T09:43:23;35.40;43.20
1367;DHT22;16877;48.810;9.282;2023-07-16T09:45:53;35.60;43.00
1367;DHT22;16877;48.810;9.282;2023-07-16T09:48:21;35.90;42.50
1367;DHT22;16877;48.810;9.282;2023-07-16T09:50:50;36.00;42.30
1367;DHT22;16877;48.810;9.282;2023-07-16T09:53:19;36.20;42.20
1367;DHT22;16877;48.810;9.282;2023-07-16T09:55:48;35.90;41.70
1367;DHT22;16877;48.810;9.282;2023-07-16T09:58:19;35.80;41.90
1367;DHT22;16877;48.810;9.282;2023-07-16T10:00:53;35.80;41.80
1367;DHT22;16877;48.810;9.282;2023-07-16T10:03:25;36.10;41.40
1367;DHT22;16877;48.810;9.282;2023-07-16T10:05:54;36.50;41.50
1367;DHT22;16877;48.810;9.282;2023-07-16T10:08:34;36.70;41.20
1367;DHT22;16877;48.810;9.282;2023-07-16T10:11:14;36.80;40.00
1367;DHT22;16877;48.810;9.282;2023-07-16T10:13:48;36.90;40.00
1367;DHT22;16877;48.810;9.282;2023-07-16T10:16:22;37.00;40.20
1367;DHT22;16877;48.810;9.282;2023-07-16T10:18:53;37.30;40.20
1367;DHT22;16877;48.810;9.282;2023-07-16T10:21:23;37.50;39.80
1367;DHT22;16877;48.810;9.282;2023-07-16T10:23:59;37.60;38.50
1367;DHT22;16877;48.810;9.282;2023-07-16T10:26:27;37.70;38.90
1367;DHT22;16877;48.810;9.282;2023-07-16T10:28:55;37.90;39.30
1367;DHT22;16877;48.810;9.282;2023-07-16T10:31:25;37.80;38.90
1367;DHT22;16877;48.810;9.282;2023-07-16T10:33:59;37.50;39.00
1367;DHT22;16877;48.810;9.282;2023-07-16T10:36:27;37.30;38.70
1367;DHT22;16877;48.810;9.282;2023-07-16T10:38:54;37.20;39.30
1367;DHT22;16877;48.810;9.282;2023-07-16T10:41:22;37.50;38.30
1367;DHT22;16877;48.810;9.282;2023-07-16T10:43:50;37.40;38.40
1367;DHT22;16877;48.810;9.282;2023-07-16T10:46:17;37.30;38.40
1367;DHT22;16877;48.810;9.282;2023-07-16T10:48:48;37.20;38.50
1367;DHT22;16877;48.810;9.282;2023-07-16T10:51:17;37.70;38.80
1367;DHT22;16877;48.810;9.282;2023-07-16T10:53:44;37.60;38.80
1367;DHT22;16877;48.810;9.282;2023-07-16T10:56:12;37.50;38.50
1367;DHT22;16877;48.810;9.282;2023-07-16T10:58:40;37.40;38.70
1367;DHT22;16877;48.810;9.282;2023-07-16T11:01:22;37.50;38.90
1367;DHT22;16877;48.810;9.282;2023-07-16T11:03:51;37.30;39.10
1367;DHT22;16877;48.810;9.282;2023-07-16T11:06:22;37.20;39.20
1367;DHT22;16877;48.810;9.282;2023-07-16T11:08:50;37.10;39.10
1367;DHT22;16877;48.810;9.282;2023-07-16T11:11:28;37.10;38.60
1367;DHT22;16877;48.810;9.282;2023-07-16T11:14:04;37.40;38.80
1367;DHT22;16877;48.810;9.282;2023-07-16T11:16:33;37.40;39.10
1367;DHT22;16877;48.810;9.282;2023-07-16T11:19:04;37.50;39.30
1367;DHT22;16877;48.810;9.282;2023-07-16T11:21:32;37.20;39.40
1367;DHT22;16877;48.810;9.282;2023-07-16T11:24:08;37.10;39.30
1367;DHT22;16877;48.810;9.282;2023-07-16T11:26:35;37.00;39.40
1367;DHT22;16877;48.810;9.282;2023-07-16T11:29:12;36.90;39.40
1367;DHT22;16877;48.810;9.282;2023-07-16T11:31:40;36.90;39.30
1367;DHT22;16877;48.810;9.282;2023-07-16T11:34:12;37.20;39.70
1367;DHT22;16877;48.810;9.282;2023-07-16T11:36:40;37.30;39.80
1367;DHT22;16877;48.810;9.282;2023-07-16T11:39:07;37.30;39.70
1367;DHT22;16877;48.810;9.282;2023-07-16T11:41:38;37.10;39.10
1367;DHT22;16877;48.810;9.282;2023-07-16T11:44:07;36.90;39.00
1367;DHT22;16877;48.810;9.282;2023-07-16T11:46:35;37.20;39.30
1367;DHT22;16877;48.810;9.282;2023-07-16T11:49:02;37.50;38.90
1367;DHT22;16877;48.810;9.282;2023-07-16T11:51:31;37.50;38.50
1367;DHT22;16877;48.810;9.282;2023-07-16T11:53:59;37.80;38.60
1367;DHT22;16877;48.810;9.282;2023-07-16T11:56:26;38.20;38.50
1367;DHT22;16877;48.810;9.282;2023-07-16T11:58:54;38.50;38.30
1367;DHT22;16877;48.810;9.282;2023-07-16T12:01:21;38.70;38.20
1367;DHT22;16877;48.810;9.282;2023-07-16T12:03:49;39.00;38.00
1367;DHT22;16877;48.810;9.282;2023-07-16T12:06:16;39.20;37.80
1367;DHT22;16877;48.810;9.282;2023-07-16T12:08:50;39.40;37.60
1367;DHT22;16877;48.810;9.282;2023-07-16T12:11:18;39.60;37.20
1367;DHT22;16877;48.810;9.282;2023-07-16T12:13:45;39.80;37.30
1367;DHT22;16877;48.810;9.282;2023-07-16T12:16:13;40.00;37.10
1367;DHT22;16877;48.810;9.282;2023-07-16T12:18:40;40.30;37.20
1367;DHT22;16877;48.810;9.282;2023-07-16T12:21:08;40.20;36.70
1367;DHT22;16877;48.810;9.282;2023-07-16T12:23:35;40.20;36.10
1367;DHT22;16877;48.810;9.282;2023-07-16T12:26:05;40.20;35.40
1367;DHT22;16877;48.810;9.282;2023-07-16T12:28:34;40.40;35.40
1367;DHT22;16877;48.810;9.282;2023-07-16T12:31:01;40.30;34.90
1367;DHT22;16877;48.810;9.282;2023-07-16T12:33:29;40.60;34.80
1367;DHT22;16877;48.810;9.282;2023-07-16T12:35:56;40.50;34.80
1367;DHT22;16877;48.810;9.282;2023-07-16T12:38:24;40.60;34.40
1367;DHT22;16877;48.810;9.282;2023-07-16T12:40:52;40.00;33.90
1367;DHT22;16877;48.810;9.282;2023-07-16T12:43:22;39.90;34.30
1367;DHT22;16877;48.810;9.282;2023-07-16T12:45:49;40.20;35.20
1367;DHT22;16877;48.810;9.282;2023-07-16T12:48:17;40.50;35.10
1367;DHT22;16877;48.810;9.282;2023-07-16T12:50:45;40.70;34.80
1367;DHT22;16877;48.810;9.282;2023-07-16T12:53:12;41.00;34.30
1367;DHT22;16877;48.810;9.282;2023-07-16T12:55:40;40.90;33.70
1367;DHT22;16877;48.810;9.282;2023-07-16T12:58:07;40.90;34.00
1367;DHT22;16877;48.810;9.282;2023-07-16T13:00:37;40.80;33.30
1367;DHT22;16877;48.810;9.282;2023-07-16T13:03:04;40.80;34.20
1367;DHT22;16877;48.810;9.282;2023-07-16T13:05:34;40.50;34.20
1367;DHT22;16877;48.810;9.282;2023-07-16T13:08:01;39.90;34.10
1367;DHT22;16877;48.810;9.282;2023-07-16T13:10:29;39.60;34.30
1367;DHT22;16877;48.810;9.282;2023-07-16T13:12:57;39.10;34.10
1367;DHT22;16877;48.810;9.282;2023-07-16T13:15:24;38.90;34.40
1367;DHT22;16877;48.810;9.282;2023-07-16T13:17:53;38.50;34.60
1367;DHT22;16877;48.810;9.282;2023-07-16T13:20:21;38.40;35.60
1367;DHT22;16877;48.810;9.282;2023-07-16T13:22:49;38.40;35.20
1367;DHT22;16877;48.810;9.282;2023-07-16T13:25:17;38.40;35.40
1367;DHT22;16877;48.810;9.282;2023-07-16T13:27:45;38.30;34.90
1367;DHT22;16877;48.810;9.282;2023-07-16T13:30:13;38.70;35.10
1367;DHT22;16877;48.810;9.282;2023-07-16T13:32:41;38.90;34.60
1367;DHT22;16877;48.810;9.282;2023-07-16T13:35:25;38.80;34.20
1367;DHT22;16877;48.810;9.282;2023-07-16T13:38:02;38.90;35.10
1367;DHT22;16877;48.810;9.282;2023-07-16T13:40:30;38.80;35.30
1367;DHT22;16877;48.810;9.282;2023-07-16T13:42:58;38.70;35.20
1367;DHT22;16877;48.810;9.282;2023-07-16T13:45:41;38.50;35.50
1367;DHT22;16877;48.810;9.282;2023-07-16T13:48:08;39.00;35.90
1367;DHT22;16877;48.810;9.282;2023-07-16T13:50:37;39.50;35.60
1367;DHT22;16877;48.810;9.282;2023-07-16T13:53:04;39.80;35.40
1367;DHT22;16877;48.810;9.282;2023-07-16T13:55:31;40.20;35.10
1367;DHT22;16877;48.810;9.282;2023-07-16T13:57:59;40.40;35.10
1367;DHT22;16877;48.810;9.282;2023-07-16T14:00:26;40.50;34.60
1367;DHT22;16877;48.810;9.282;2023-07-16T14:02:54;40.60;34.00
1367;DHT22;16877;48.810;9.282;2023-07-16T14:05:21;40.60;33.70
1367;DHT22;16877;48.810;9.282;2023-07-16T14:07:50;40.70;34.20
1367;DHT22;16877;48.810;9.282;2023-07-16T14:10:19;40.60;33.90
1367;DHT22;16877;48.810;9.282;2023-07-16T14:12:46;40.50;33.70
1367;DHT22;16877;48.810;9.282;2023-07-16T14:15:14;40.20;33.60
1367;DHT22;16877;48.810;9.282;2023-07-16T14:17:41;39.90;33.80
1367;DHT22;16877;48.810;9.282;2023-07-16T14:20:09;39.60;34.10
1367;DHT22;16877;48.810;9.282;2023-07-16T14:22:37;39.30;34.30
1367;DHT22;16877;48.810;9.282;2023-07-16T14:25:07;39.20;34.50
1367;DHT22;16877;48.810;9.282;2023-07-16T14:27:34;39.10;34.60
1367;DHT22;16877;48.810;9.282;2023-07-16T14:30:02;38.90;34.80
1367;DHT22;16877;48.810;9.282;2023-07-16T14:32:44;38.70;35.00
1367;DHT22;16877;48.810;9.282;2023-07-16T14:35:12;38.60;35.10
1367;DHT22;16877;48.810;9.282;2023-07-16T14:37:47;38.40;35.40
1367;DHT22;16877;48.810;9.282;2023-07-16T14:40:20;38.30;35.70
1367;DHT22;16877;48.810;9.282;2023-07-16T14:42:48;38.60;36.30
1367;DHT22;16877;48.810;9.282;2023-07-16T14:45:16;38.50;35.80
1367;DHT22;16877;48.810;9.282;2023-07-16T14:47:44;38.90;36.20
1367;DHT22;16877;48.810;9.282;2023-07-16T14:50:12;38.60;35.10
1367;DHT22;16877;48.810;9.282;2023-07-16T14:52:39;38.40;35.40
1367;DHT22;16877;48.810;9.282;2023-07-16T14:55:08;38.10;35.50
1367;DHT22;16877;48.810;9.282;2023-07-16T14:57:39;37.90;35.50
1367;DHT22;16877;48.810;9.282;2023-07-16T15:00:07;37.50;35.80
1367;DHT22;16877;48.810;9.282;2023-07-16T15:02:37;37.40;36.20
1367;DHT22;16877;48.810;9.282;2023-07-16T15:05:06;37.30;36.30
1367;DHT22;16877;48.810;9.282;2023-07-16T15:07:34;37.10;36.20
1367;DHT22;16877;48.810;9.282;2023-07-16T15:10:01;37.00;36.50
1367;DHT22;16877;48.810;9.282;2023-07-16T15:12:29;37.00;36.60
1367;DHT22;16877;48.810;9.282;2023-07-16T15:14:58;37.10;36.70
1367;DHT22;16877;48.810;9.282;2023-07-16T15:17:26;37.20;36.80
1367;DHT22;16877;48.810;9.282;2023-07-16T15:19:53;37.30;37.30
1367;DHT22;16877;48.810;9.282;2023-07-16T15:22:21;37.40;37.40
1367;DHT22;16877;48.810;9.282;2023-07-16T15:24:49;37.60;37.70
1367;DHT22;16877;48.810;9.282;2023-07-16T15:27:17;37.60;37.40
1367;DHT22;16877;48.810;9.282;2023-07-16T15:29:45;37.50;37.50
1367;DHT22;16877;48.810;9.282;2023-07-16T15:32:15;37.40;37.60
1367;DHT22;16877;48.810;9.282;2023-07-16T15:34:42;37.30;37.70
1367;DHT22;16877;48.810;9.282;2023-07-16T15:37:10;37.30;37.70
1367;DHT22;16877;48.810;9.282;2023-07-16T15:39:37;37.30;38.00
1367;DHT22;16877;48.810;9.282;2023-07-16T15:42:06;37.30;38.00
1367;DHT22;16877;48.810;9.282;2023-07-16T15:44:35;37.40;38.10
1367;DHT22;16877;48.810;9.282;2023-07-16T15:47:02;37.40;38.00
1367;DHT22;16877;48.810;9.282;2023-07-16T15:49:32;37.60;38.10
1367;DHT22;16877;48.810;9.282;2023-07-16T15:52:02;37.70;37.90
1367;DHT22;16877;48.810;9.282;2023-07-16T15:54:29;37.90;37.70
1367;DHT22;16877;48.810;9.282;2023-07-16T15:56:57;38.00;37.40
1367;DHT22;16877;48.810;9.282;2023-07-16T15:59:25;38.10;37.10
1367;DHT22;16877;48.810;9.282;2023-07-16T16:01:52;38.20;37.10
1367;DHT22;16877;48.810;9.282;2023-07-16T16:04:20;38.30;36.80
1367;DHT22;16877;48.810;9.282;2023-07-16T16:06:49;38.30;36.80
1367;DHT22;16877;48.810;9.282;2023-07-16T16:09:17;38.30;36.70
1367;DHT22;16877;48.810;9.282;2023-07-16T16:11:44;38.30;36.70